Time;durP1;ratioP1;P1;durP2;ratioP2;P2;SDS_P1;SDS_P2;PMS_P1;PMS_P2;Temp;Humidity;BMP_temperature;BMP_pressure;BME280_temperature;BME280_humidity;BME280_pressure;Samples;Min_cycle;Max_cycle;Signal;HPM_P1;HPM_P2
2021/10/23 00:01:10;;;;;;;;;;;;;;;4.94;84.59;100469.34;5004020;28;19983;-81
2021/10/23 00:03:35;;;;;;;;;;;;;;;4.94;84.72;100477.22;4986360;28;19937;-81
2021/10/23 00:06:00;;;;;;;;;;;;;;;4.97;84.78;100479.81;5003747;28;19991;-80
2021/10/23 00:08:26;;;;;;;;;;;;;;;4.97;84.84;100480.69;5004225;28;19928;-80
2021/10/23 00:10:51;;;;;;;;;;;;;;;4.99;84.91;100488.56;4980987;28;19922;-81
2021/10/23 00:13:16;;;;;;;;;;;;;;;5.03;84.96;100485.03;4980821;28;20002;-81
2021/10/23 00:15:41;;;;;;;;;;;;;;;5.06;85.08;100485.88;4986234;28;19922;-81
2021/10/23 00:18:07;;;;;;;;;;;;;;;5.07;85.15;100484.09;4985745;28;19941;-81
2021/10/23 00:20:32;;;;;;;;;;;;;;;5.11;85.28;100484.97;5003576;28;19963;-81
2021/10/23 00:22:57;;;;;;;;;;;;;;;5.13;85.34;100489.31;5004312;28;20276;-81
2021/10/23 00:25:23;;;;;;;;;;;;;;;5.14;85.38;100477.03;4985254;28;20432;-81
2021/10/23 00:27:48;;;;;;;;;;;;;;;5.15;85.52;100479.63;4986337;28;19920;-81
2021/10/23 00:30:14;;;;;;;;;;;;;;;5.18;85.61;100476.97;5002736;28;19928;-81
2021/10/23 00:32:40;;;;;;;;;;;;;;;5.21;85.67;100470.84;5002692;28;19929;-81
2021/10/23 00:35:06;;;;;;;;;;;;;;;5.22;85.63;100486.59;4985990;28;19920;-81
2021/10/23 00:37:31;;;;;;;;;;;;;;;5.25;85.68;100483.94;5003537;28;20340;-82
2021/10/23 00:39:57;;;;;;;;;;;;;;;5.99;88.83;100485.75;5001621;28;19925;-81
2021/10/23 00:42:22;;;;;;;;;;;;;;;5.63;nan;100487.91;4999176;28;20299;-82
2021/10/23 00:44:47;;;;;;;;;;;;;;;5.51;87.94;100498.56;5001357;28;20292;-81
2021/10/23 00:47:17;;;;;;;;;;;;;;;5.45;87.46;100496.00;4986483;28;19918;-84
2021/10/23 00:49:43;;;;;;;;;;;;;;;5.42;86.86;100496.88;5001303;28;19925;-83
2021/10/23 00:52:08;;;;;;;;;;;;;;;5.48;86.83;100497.72;5003043;28;20000;-84
2021/10/23 00:54:34;;;;;;;;;;;;;;;5.57;87.64;100497.63;5001132;28;20016;-84
2021/10/23 00:57:00;;;;;;;;;;;;;;;5.59;88.49;100498.47;5001927;28;20332;-83
2021/10/23 00:59:26;;;;;;;;;;;;;;;5.57;89.09;100493.25;5003525;28;20177;-83
2021/10/23 01:01:51;;;;;;;;;;;;;;;5.53;89.68;100494.16;5003538;28;19922;-83
2021/10/23 01:04:19;;;;;;;;;;;;;;;5.44;90.36;100503.03;5003295;28;19964;-83
2021/10/23 01:06:44;;;;;;;;;;;;;;;5.31;90.38;100506.63;5003041;28;20418;-83
2021/10/23 01:09:10;;;;;;;;;;;;;;;5.23;90.59;100512.00;5001490;28;19922;-84
2021/10/23 01:11:35;;;;;;;;;;;;;;;5.14;90.86;100514.69;5002897;28;19925;-84
2021/10/23 01:14:01;;;;;;;;;;;;;;;5.12;91.50;100518.22;5003483;28;20484;-83
2021/10/23 01:16:26;;;;;;;;;;;;;;;5.15;92.49;100516.41;5003342;28;19952;-83
2021/10/23 01:18:52;;;;;;;;;;;;;;;5.16;93.75;100523.44;5002609;28;20023;-81
2021/10/23 01:21:23;;;;;;;;;;;;;;;5.23;95.91;100521.59;5002753;28;19932;-83
2021/10/23 01:23:49;;;;;;;;;;;;;;;5.32;98.76;100512.78;5002885;28;19925;-82
2021/10/23 01:26:15;;;;;;;;;;;;;;;5.49;100.00;100518.75;5001391;28;19921;-84
2021/10/23 01:28:40;;;;;;;;;;;;;;;5.70;100.00;100524.66;4985418;28;19917;-82
2021/10/23 01:31:05;;;;;;;;;;;;;;;5.86;100.00;100523.59;5002127;28;19926;-83
2021/10/23 03:18:27;;;;;;;;;;;;;;;7.39;100.00;100534.56;5134090;23;20386;-81
2021/10/23 03:20:54;;;;;;;;;;;;;;;7.41;100.00;100524.84;4997466;28;19926;-82
2021/10/23 03:23:19;;;;;;;;;;;;;;;7.40;100.00;100528.38;5015050;28;19924;-82
2021/10/23 03:25:45;;;;;;;;;;;;;;;7.44;100.00;100523.00;5014823;28;19922;-82
2021/10/23 03:28:10;;;;;;;;;;;;;;;7.38;100.00;100525.75;5014987;28;20276;-82
2021/10/23 03:30:35;;;;;;;;;;;;;;;7.45;100.00;100524.75;5015063;28;19924;-83
2021/10/23 03:33:01;;;;;;;;;;;;;;;7.49;100.00;100524.72;5012611;28;19922;-83
2021/10/23 03:35:26;;;;;;;;;;;;;;;7.48;100.00;100522.97;5014814;28;19917;-81
2021/10/23 03:37:51;;;;;;;;;;;;;;;7.52;100.00;100527.28;5014634;28;19917;-81
2021/10/23 03:40:17;;;;;;;;;;;;;;;7.53;100.00;100524.63;5014554;28;20376;-81
2021/10/23 03:42:42;;;;;;;;;;;;;;;7.54;100.00;100522.84;5014650;28;19917;-81
2021/10/23 03:45:07;;;;;;;;;;;;;;;7.57;100.00;100525.44;5014518;28;19917;-82
2021/10/23 03:47:33;;;;;;;;;;;;;;;7.60;100.00;100530.66;5012695;28;20008;-81
2021/10/23 03:49:58;;;;;;;;;;;;;;;7.57;100.00;100525.44;5013741;28;19917;-81
2021/10/23 03:52:23;;;;;;;;;;;;;;;6.68;100.00;100527.78;5014517;28;19932;-83
2021/10/23 03:54:48;;;;;;;;;;;;;;;5.12;100.00;100533.97;5014162;28;19943;-82
2021/10/23 03:57:14;;;;;;;;;;;;;;;4.46;100.00;100530.06;5014299;28;19921;-82
2021/10/23 03:59:39;;;;;;;;;;;;;;;4.10;100.00;100524.13;5014554;28;19921;-83
2021/10/23 04:02:04;;;;;;;;;;;;;;;3.89;100.00;100528.59;5012956;28;19924;-82
2021/10/23 04:04:29;;;;;;;;;;;;;;;3.71;100.00;100529.53;5014160;28;19972;-83
2021/10/23 04:06:55;;;;;;;;;;;;;;;3.57;100.00;100526.06;5014190;28;20391;-83
2021/10/23 04:09:20;;;;;;;;;;;;;;;3.45;100.00;100519.97;5013836;28;20005;-82
2021/10/23 04:11:46;;;;;;;;;;;;;;;3.28;100.00;100514.75;4996556;28;19928;-82
2021/10/23 04:14:11;;;;;;;;;;;;;;;3.16;100.00;100514.78;5013992;28;20356;-82
2021/10/23 04:16:36;;;;;;;;;;;;;;;3.05;100.00;100520.03;5012615;28;19928;-83
2021/10/23 04:19:02;;;;;;;;;;;;;;;3.02;100.00;100519.16;5013751;28;19968;-82
2021/10/23 04:21:27;;;;;;;;;;;;;;;2.96;100.00;100516.56;4996214;28;20372;-82
2021/10/23 04:23:53;;;;;;;;;;;;;;;2.84;100.00;100528.75;5013426;28;19924;-83
2021/10/23 04:26:18;;;;;;;;;;;;;;;2.79;100.00;100524.38;5013721;28;19921;-82
2021/10/23 04:28:43;;;;;;;;;;;;;;;3.02;100.00;100533.13;5013800;28;19928;-82
2021/10/23 04:31:08;;;;;;;;;;;;;;;3.33;100.00;100527.84;5013649;28;19921;-83
2021/10/23 04:33:34;;;;;;;;;;;;;;;3.32;100.00;100530.47;5012536;28;20029;-83
2021/10/23 04:35:59;;;;;;;;;;;;;;;3.01;100.00;100530.50;5013509;28;19921;-83
2021/10/23 04:38:24;;;;;;;;;;;;;;;2.93;100.00;100532.25;5013483;28;20018;-83
2021/10/23 04:40:50;;;;;;;;;;;;;;;2.82;100.00;100530.47;5013319;28;20368;-83
2021/10/23 04:43:15;;;;;;;;;;;;;;;2.80;100.00;100534.84;5013498;28;20279;-82
2021/10/23 04:45:41;;;;;;;;;;;;;;;2.70;100.00;100530.50;5013348;28;19921;-82
2021/10/23 04:48:06;;;;;;;;;;;;;;;2.62;100.00;100534.84;5011142;28;19923;-82
2021/10/23 04:50:31;;;;;;;;;;;;;;;2.51;100.00;100542.69;5013335;28;19922;-83
2021/10/23 04:52:57;;;;;;;;;;;;;;;2.53;100.00;100535.69;5012430;28;19953;-82
2021/10/23 04:55:22;;;;;;;;;;;;;;;2.38;100.00;100541.78;5013401;28;19917;-83
2021/10/23 04:57:47;;;;;;;;;;;;;;;2.33;100.00;100551.31;5012319;28;19917;-82
2021/10/23 05:00:12;;;;;;;;;;;;;;;2.32;100.00;100555.69;5012924;28;20368;-82
2021/10/23 05:02:38;;;;;;;;;;;;;;;2.28;100.00;100559.19;5012145;28;20278;-82
2021/10/23 05:05:03;;;;;;;;;;;;;;;2.13;100.00;100577.41;5013167;28;19922;-82
2021/10/23 05:07:29;;;;;;;;;;;;;;;2.09;100.00;100584.38;4995397;28;19924;-83
2021/10/23 05:09:54;;;;;;;;;;;;;;;2.24;100.00;100577.47;5012849;28;19918;-82
2021/10/23 05:12:19;;;;;;;;;;;;;;;2.18;100.00;100578.31;5013052;28;19929;-82
2021/10/23 05:14:44;;;;;;;;;;;;;;;2.15;100.00;100584.41;5012952;28;19981;-81
2021/10/23 07:57:28;;;;;;;;;;;;;;;3.82;100.00;100700.78;5273497;22;20303;-79
2021/10/23 07:59:53;;;;;;;;;;;;;;;3.82;100.00;100713.88;5011358;28;19921;-80
2021/10/23 08:02:19;;;;;;;;;;;;;;;3.84;100.00;100706.03;5013991;28;19925;-80
2021/10/23 08:04:44;;;;;;;;;;;;;;;3.85;100.00;100718.25;5013752;28;20388;-79
2021/10/23 08:07:09;;;;;;;;;;;;;;;3.90;100.00;100720.88;5012537;28;20012;-79
2021/10/23 08:09:35;;;;;;;;;;;;;;;3.90;99.78;100728.75;5014016;28;19918;-80
2021/10/23 08:12:01;;;;;;;;;;;;;;;3.91;99.08;100735.72;5012635;28;19918;-79
2021/10/23 08:14:26;;;;;;;;;;;;;;;3.91;98.45;100740.97;5014030;28;19924;-80
2021/10/23 08:16:51;;;;;;;;;;;;;;;3.94;97.92;100747.13;5013084;28;19953;-80
2021/10/23 08:19:17;;;;;;;;;;;;;;;3.99;97.48;100744.50;5013778;28;20004;-79
2021/10/23 08:21:42;;;;;;;;;;;;;;;4.04;97.09;100742.72;5012989;28;20060;-79
2021/10/23 08:24:08;;;;;;;;;;;;;;;4.05;96.63;100740.97;5013665;28;20387;-81
2021/10/23 08:26:34;;;;;;;;;;;;;;;4.06;96.41;100756.72;5012574;28;19918;-80
2021/10/23 08:28:59;;;;;;;;;;;;;;;4.09;95.77;100750.59;5013472;28;19924;-80
2021/10/23 08:31:24;;;;;;;;;;;;;;;4.08;95.28;100748.84;5013716;28;19921;-79
2021/10/23 08:33:50;;;;;;;;;;;;;;;4.13;94.98;100752.31;5012934;28;19917;-80
2021/10/23 08:36:15;;;;;;;;;;;;;;;4.17;94.72;100762.81;5013232;28;19961;-80
2021/10/23 08:38:41;;;;;;;;;;;;;;;4.18;93.98;100766.34;5012256;28;19918;-80
2021/10/23 08:41:06;;;;;;;;;;;;;;;4.22;93.83;100760.19;5012071;28;20035;-80
2021/10/23 08:43:33;;;;;;;;;;;;;;;4.25;93.46;100765.44;5013248;28;19922;-81
2021/10/23 08:45:59;;;;;;;;;;;;;;;4.27;93.27;100765.44;5013333;28;19921;-80
2021/10/23 08:48:26;;;;;;;;;;;;;;;4.25;92.96;100764.56;5012156;28;20344;-80
2021/10/23 08:50:52;;;;;;;;;;;;;;;4.27;92.49;100773.31;5013282;28;19975;-80
2021/10/23 08:53:19;;;;;;;;;;;;;;;4.32;92.23;100775.06;5013416;28;19988;-80
2021/10/23 08:55:44;;;;;;;;;;;;;;;4.33;92.07;100776.78;5011915;28;20246;-79
2021/10/23 08:58:10;;;;;;;;;;;;;;;4.36;91.89;100775.94;5012795;28;19925;-81
2021/10/23 09:00:36;;;;;;;;;;;;;;;4.34;91.77;100777.66;5012632;28;19921;-80
2021/10/23 09:03:01;;;;;;;;;;;;;;;4.38;91.76;100779.41;5012956;28;20257;-80
2021/10/23 09:05:26;;;;;;;;;;;;;;;4.41;91.51;100783.78;5012961;28;19944;-80
2021/10/23 09:07:52;;;;;;;;;;;;;;;4.40;91.26;100777.66;5013171;28;20016;-80
2021/10/23 09:10:26;;;;;;;;;;;;;;;4.44;91.10;100776.78;5012874;28;19953;-80
2021/10/23 09:13:07;;;;;;;;;;;;;;;4.46;90.91;100777.66;5011904;28;19921;-81
2021/10/23 09:15:33;;;;;;;;;;;;;;;4.47;90.70;100773.28;5012681;28;20324;-80
2021/10/23 09:17:58;;;;;;;;;;;;;;;4.52;90.95;100768.91;5012630;28;19960;-80
2021/10/23 09:20:24;;;;;;;;;;;;;;;4.58;90.92;100771.50;5012843;28;20403;-80
2021/10/23 09:22:53;;;;;;;;;;;;;;;4.57;90.47;100775.00;5012647;28;19921;-80
2021/10/23 09:25:21;;;;;;;;;;;;;;;4.59;90.62;100775.00;5011907;28;19921;-81
2021/10/23 09:27:49;;;;;;;;;;;;;;;4.59;90.56;100778.47;5011360;28;20122;-80
2021/10/23 09:30:19;;;;;;;;;;;;;;;4.61;90.57;100775.84;5012555;28;19918;-80
2021/10/23 09:32:49;;;;;;;;;;;;;;;4.66;90.60;100781.97;5012636;28;19918;-80
2021/10/23 09:35:15;;;;;;;;;;;;;;;4.66;90.58;100777.59;5012496;28;19921;-80
2021/10/23 09:37:44;;;;;;;;;;;;;;;4.68;90.26;100783.72;5012478;28;19927;-80
2021/10/23 09:40:11;;;;;;;;;;;;;;;4.71;90.44;100781.09;5018598;28;20296;-80
2021/10/23 09:42:36;;;;;;;;;;;;;;;4.73;90.50;100779.31;5011010;28;20347;-80
2021/10/23 09:45:03;;;;;;;;;;;;;;;4.76;90.54;100786.31;5012253;28;19918;-80
2021/10/23 09:47:36;;;;;;;;;;;;;;;4.81;90.76;100784.56;5011527;28;19913;-80
2021/10/23 09:50:04;;;;;;;;;;;;;;;4.80;90.62;100782.78;5011908;28;19921;-80
2021/10/23 09:52:32;;;;;;;;;;;;;;;4.84;90.79;100778.44;5011766;28;19921;-80
2021/10/23 09:55:08;;;;;;;;;;;;;;;4.85;90.52;100785.41;5012178;28;19921;-80
2021/10/23 09:57:33;;;;;;;;;;;;;;;4.87;90.60;100788.94;5010316;28;20364;-80
2021/10/23 10:00:09;;;;;;;;;;;;;;;4.90;90.62;100789.78;5012263;28;19971;-80
2021/10/23 10:02:44;;;;;;;;;;;;;;;4.95;90.69;100786.28;5012092;28;20391;-80
2021/10/23 10:05:10;;;;;;;;;;;;;;;4.93;90.49;100788.91;5010761;28;19922;-81
2021/10/23 10:07:36;;;;;;;;;;;;;;;4.96;90.29;100788.00;5011984;28;19921;-81
2021/10/23 10:10:02;;;;;;;;;;;;;;;4.99;90.50;100798.50;5012030;28;20486;-80
2021/10/23 10:12:28;;;;;;;;;;;;;;;5.04;90.81;100796.72;5010786;28;19917;-80
2021/10/23 10:14:53;;;;;;;;;;;;;;;5.02;90.65;100795.88;5012575;28;19921;-80
2021/10/23 10:17:20;;;;;;;;;;;;;;;5.04;90.71;100797.63;5011962;28;19918;-80
2021/10/23 10:19:45;;;;;;;;;;;;;;;5.11;90.60;100794.97;5012078;28;19944;-80
2021/10/23 10:22:11;;;;;;;;;;;;;;;5.11;90.24;100787.94;5011031;28;19913;-80
2021/10/23 10:24:37;;;;;;;;;;;;;;;5.11;90.23;100792.34;5011926;28;20418;-81
2021/10/23 10:27:03;;;;;;;;;;;;;;;5.12;90.18;100796.69;5010766;28;19913;-81
2021/10/23 10:29:59;;;;;;;;;;;;;;;5.14;90.11;100790.56;5011852;28;20360;-80
2021/10/23 10:42:53;;;;;;;;;;;;;;;5.22;90.10;100769.50;4993631;28;19931;-81
2021/10/23 10:45:38;;;;;;;;;;;;;;;5.29;90.04;100771.22;5011722;28;19957;-80
2021/10/23 10:48:12;;;;;;;;;;;;;;;5.30;89.86;100766.81;5011831;28;19917;-81
2021/10/23 10:50:38;;;;;;;;;;;;;;;5.32;90.12;100778.22;5011475;28;20008;-81
2021/10/23 10:53:23;;;;;;;;;;;;;;;5.36;90.31;100769.41;5010780;28;20004;-80
2021/10/23 10:55:51;;;;;;;;;;;;;;;5.39;90.56;100772.91;4965161;28;19921;-80
2021/10/23 10:58:38;;;;;;;;;;;;;;;5.41;90.57;100770.28;5016843;28;19925;-80
2021/10/23 11:01:08;;;;;;;;;;;;;;;5.42;90.54;100766.75;5025027;28;19917;-80
2021/10/23 11:03:37;;;;;;;;;;;;;;;5.44;90.76;100762.34;5024778;28;19917;-80
2021/10/23 11:06:21;;;;;;;;;;;;;;;5.42;90.51;100764.13;5025836;28;19988;-80
2021/10/23 11:08:46;;;;;;;;;;;;;;;5.46;90.67;100764.09;5025671;28;20368;-80
2021/10/23 11:11:12;;;;;;;;;;;;;;;5.50;90.87;100764.94;5023798;28;19917;-81
2021/10/23 11:13:44;;;;;;;;;;;;;;;5.52;90.92;100757.94;5007318;28;20391;-80
2021/10/23 11:16:27;;;;;;;;;;;;;;;5.57;91.49;100755.28;5025019;28;19949;-80
2021/10/23 11:18:53;;;;;;;;;;;;;;;5.62;91.86;100753.50;5024607;28;19917;-80
2021/10/23 11:21:19;;;;;;;;;;;;;;;5.62;92.00;100754.34;5024648;28;19921;-80
2021/10/23 11:23:49;;;;;;;;;;;;;;;5.61;92.18;100752.59;5025114;28;19924;-80
2021/10/23 11:26:15;;;;;;;;;;;;;;;5.61;92.00;100749.09;5023147;28;19987;-81
2021/10/23 11:28:41;;;;;;;;;;;;;;;5.66;92.14;100752.56;5024598;28;19925;-81
2021/10/23 11:31:15;;;;;;;;;;;;;;;5.70;92.27;100748.19;5025148;28;19921;-80
2021/10/23 11:33:41;;;;;;;;;;;;;;;5.73;92.90;100742.91;5024241;28;19921;-80
2021/10/23 11:36:12;;;;;;;;;;;;;;;5.74;92.98;100752.50;5025565;28;19921;-80
2021/10/23 11:38:37;;;;;;;;;;;;;;;5.76;93.27;100759.53;5024076;28;19921;-80
2021/10/23 11:41:04;;;;;;;;;;;;;;;5.78;93.45;100760.38;5023164;28;19924;-81
2021/10/23 11:43:30;;;;;;;;;;;;;;;5.78;93.38;100752.47;5024557;28;19921;-81
2021/10/23 11:45:56;;;;;;;;;;;;;;;5.83;93.71;100753.31;5024521;28;19924;-81
2021/10/23 11:48:21;;;;;;;;;;;;;;;5.85;93.63;100749.81;5024445;28;19917;-80
2021/10/23 11:50:51;;;;;;;;;;;;;;;5.83;93.63;100748.06;5024097;28;19925;-80
2021/10/23 11:53:24;;;;;;;;;;;;;;;5.86;93.73;100744.53;5006959;28;20437;-80
2021/10/23 11:55:55;;;;;;;;;;;;;;;5.87;93.51;100750.66;5022688;28;20539;-81
2021/10/23 11:58:24;;;;;;;;;;;;;;;5.91;93.71;100753.25;5020162;28;20016;-80
2021/10/23 12:00:57;;;;;;;;;;;;;;;5.93;93.97;100758.50;5012215;28;19917;-81
2021/10/23 12:03:38;;;;;;;;;;;;;;;5.96;94.11;100751.50;5013694;28;19929;-80
2021/10/23 12:06:22;;;;;;;;;;;;;;;6.00;94.07;100757.63;5013898;28;19921;-81
2021/10/23 12:08:48;;;;;;;;;;;;;;;5.98;93.99;100755.00;5012931;28;20368;-80
2021/10/23 12:11:23;;;;;;;;;;;;;;;6.03;94.33;100756.69;5012339;28;20388;-80
2021/10/23 12:13:56;;;;;;;;;;;;;;;6.05;94.64;100757.56;5013136;28;19917;-80
2021/10/23 12:16:30;;;;;;;;;;;;;;;6.08;94.80;100763.69;5013230;28;19929;-80
2021/10/23 12:19:00;;;;;;;;;;;;;;;6.10;94.85;100750.50;5013724;28;19925;-80
2021/10/23 12:21:25;;;;;;;;;;;;;;;6.11;94.93;100747.88;5013533;28;20020;-81
2021/10/23 12:23:52;;;;;;;;;;;;;;;6.14;94.99;100750.47;5013804;28;20332;-81
2021/10/23 12:26:22;;;;;;;;;;;;;;;6.18;95.13;100752.16;5012312;28;19926;-80
2021/10/23 12:28:58;;;;;;;;;;;;;;;6.18;95.19;100746.91;5013750;28;19957;-81
2021/10/23 12:31:24;;;;;;;;;;;;;;;6.20;95.19;100744.25;5013258;28;19948;-80
2021/10/23 12:34:00;;;;;;;;;;;;;;;6.21;95.11;100747.75;5013806;28;20365;-81
2021/10/23 12:36:25;;;;;;;;;;;;;;;6.23;95.24;100746.88;5013279;28;19917;-80
2021/10/23 12:38:50;;;;;;;;;;;;;;;6.25;95.29;100745.09;5013446;28;20008;-81
2021/10/23 12:41:16;;;;;;;;;;;;;;;6.30;95.63;100740.66;5012468;28;19921;-81
2021/10/23 12:43:41;;;;;;;;;;;;;;;6.31;95.84;100746.78;5012442;28;19922;-80
2021/10/23 12:46:07;;;;;;;;;;;;;;;6.32;95.88;100738.88;5013578;28;20407;-81
2021/10/23 12:48:32;;;;;;;;;;;;;;;6.34;95.97;100738.88;5012425;28;19917;-81
2021/10/23 12:50:58;;;;;;;;;;;;;;;6.37;95.91;100738.84;5013264;28;19995;-81
2021/10/23 12:53:24;;;;;;;;;;;;;;;6.47;96.28;100736.97;5013312;28;19932;-81
2021/10/23 12:55:49;;;;;;;;;;;;;;;6.51;96.66;100738.66;5011930;28;19917;-80
2021/10/23 12:58:14;;;;;;;;;;;;;;;6.54;97.05;100739.53;5012974;28;20108;-81
2021/10/23 13:00:41;;;;;;;;;;;;;;;6.52;97.59;100735.16;5013112;28;19917;-81
2021/10/23 13:03:06;;;;;;;;;;;;;;;6.45;97.70;100736.13;5013027;28;20396;-80
2021/10/23 13:05:32;;;;;;;;;;;;;;;6.34;97.69;100731.84;5012962;28;19917;-81
2021/10/23 13:07:57;;;;;;;;;;;;;;;6.20;97.38;100728.47;5012835;28;19917;-81
2021/10/23 13:10:22;;;;;;;;;;;;;;;6.08;96.65;100733.84;5013138;28;19913;-81
2021/10/23 13:12:47;;;;;;;;;;;;;;;5.89;95.62;100734.00;5011624;28;20245;-81
2021/10/23 13:15:14;;;;;;;;;;;;;;;5.75;94.78;100727.97;5012940;28;20288;-81
2021/10/23 13:17:40;;;;;;;;;;;;;;;5.67;94.77;100733.28;5012548;28;19927;-81
2021/10/23 13:20:06;;;;;;;;;;;;;;;5.67;95.52;100729.78;5011262;28;20292;-80
2021/10/23 13:22:31;;;;;;;;;;;;;;;5.70;96.96;100724.50;5012595;28;19959;-81
2021/10/23 13:24:57;;;;;;;;;;;;;;;5.73;99.07;100729.75;5012693;28;19921;-81
2021/10/23 13:27:23;;;;;;;;;;;;;;;5.88;100.00;100728.75;5026209;28;19920;-81
2021/10/23 13:29:49;;;;;;;;;;;;;;;6.05;100.00;100725.97;5012583;28;19924;-81
2021/10/23 13:32:14;;;;;;;;;;;;;;;6.27;100.00;100718.75;5012580;28;20331;-81
2021/10/23 13:34:39;;;;;;;;;;;;;;;6.43;100.00;100719.47;5012373;28;20052;-82
2021/10/23 13:37:05;;;;;;;;;;;;;;;6.54;100.00;100720.22;5011516;28;19928;-80
2021/10/23 13:39:30;;;;;;;;;;;;;;;6.62;100.00;100718.38;5012397;28;20403;-81
2021/10/23 13:41:56;;;;;;;;;;;;;;;6.68;100.00;100707.75;5010091;28;19917;-82
2021/10/23 13:44:21;;;;;;;;;;;;;;;6.73;100.00;100713.84;5012398;28;19929;-80
2021/10/23 13:46:46;;;;;;;;;;;;;;;6.77;100.00;100719.09;5012331;28;19929;-81
2021/10/23 13:49:12;;;;;;;;;;;;;;;6.82;100.00;100718.13;5012304;28;19917;-81
2021/10/23 13:51:38;;;;;;;;;;;;;;;6.85;100.00;100711.97;5012241;28;19922;-80
2021/10/23 13:54:03;;;;;;;;;;;;;;;6.88;100.00;100715.41;5012196;28;20261;-81
2021/10/23 13:56:28;;;;;;;;;;;;;;;6.93;100.00;100712.72;5010996;28;19975;-81
2021/10/23 13:58:54;;;;;;;;;;;;;;;6.98;100.00;100718.78;5011941;28;20016;-81
2021/10/23 14:01:19;;;;;;;;;;;;;;;7.00;100.00;100713.50;5012321;28;19980;-81
2021/10/23 14:03:45;;;;;;;;;;;;;;;7.03;100.00;100716.09;5012101;28;20299;-81
2021/10/23 14:06:10;;;;;;;;;;;;;;;7.05;100.00;100717.84;5012348;28;19927;-82
2021/10/23 14:08:35;;;;;;;;;;;;;;;7.12;100.00;100720.41;5011707;28;19924;-81
2021/10/23 14:11:01;;;;;;;;;;;;;;;7.14;100.00;100726.50;5010941;28;19921;-81
2021/10/23 14:13:26;;;;;;;;;;;;;;;7.18;100.00;100717.66;5012182;28;19918;-81
2021/10/23 14:15:51;;;;;;;;;;;;;;;7.21;100.00;100721.13;5012002;28;19921;-80
2021/10/23 14:18:17;;;;;;;;;;;;;;;7.24;100.00;100712.28;5011932;28;19925;-80
2021/10/23 14:20:43;;;;;;;;;;;;;;;7.25;100.00;100708.78;5011971;28;19925;-80
2021/10/23 14:23:11;;;;;;;;;;;;;;;7.27;100.00;100712.25;5012029;28;19918;-80
2021/10/23 14:25:36;;;;;;;;;;;;;;;7.27;100.00;100710.50;5011288;28;19925;-80
2021/10/23 14:28:38;;;;;;;;;;;;;;;5.94;100.00;100713.78;5011608;28;19921;-80
2021/10/23 14:30:57;;;;;;;;;;;;;;;4.59;100.00;100712.00;5011679;28;19930;-80
2021/10/23 14:33:22;;;;;;;;;;;;;;;3.99;100.00;100707.78;5014112;28;19921;-80
2021/10/23 14:35:49;;;;;;;;;;;;;;;3.75;100.00;100716.50;5015751;28;19917;-80
2021/10/23 14:38:14;;;;;;;;;;;;;;;3.51;100.00;100714.75;5015950;28;19980;-81
2021/10/23 14:40:40;;;;;;;;;;;;;;;3.43;100.00;100712.13;5013948;28;19917;-80
2021/10/23 14:43:05;;;;;;;;;;;;;;;3.30;100.00;100715.59;5015490;28;19917;-81
2021/10/23 14:45:31;;;;;;;;;;;;;;;3.18;100.00;100724.31;5015481;28;20043;-81
2021/10/23 14:47:56;;;;;;;;;;;;;;;3.12;100.00;100719.06;5015573;28;19920;-81
2021/10/23 14:50:21;;;;;;;;;;;;;;;3.05;100.00;100716.44;5015602;28;19924;-80
2021/10/23 14:52:47;;;;;;;;;;;;;;;2.95;100.00;100708.53;5015455;28;19921;-80
2021/10/23 14:55:12;;;;;;;;;;;;;;;2.79;100.00;100707.59;5015510;28;19917;-80
2021/10/23 14:57:37;;;;;;;;;;;;;;;2.72;99.66;100704.97;5013763;28;19964;-80
2021/10/23 15:00:03;;;;;;;;;;;;;;;2.69;99.09;100709.31;5015232;28;19926;-82
2021/10/23 15:02:29;;;;;;;;;;;;;;;2.65;98.30;100708.44;5015255;28;19964;-81
2021/10/23 15:04:54;;;;;;;;;;;;;;;2.51;97.29;100712.72;5015321;28;19922;-80
2021/10/23 15:07:19;;;;;;;;;;;;;;;2.43;96.79;100714.44;5014988;28;19917;-81
2021/10/23 15:09:44;;;;;;;;;;;;;;;2.39;96.41;100712.66;5015072;28;19928;-81
2021/10/23 15:12:10;;;;;;;;;;;;;;;2.29;96.22;100714.34;5013863;28;20011;-81
2021/10/23 15:14:35;;;;;;;;;;;;;;;2.29;95.65;100716.97;5013652;28;19929;-81
2021/10/23 15:17:01;;;;;;;;;;;;;;;2.30;95.98;100718.72;5014957;28;20285;-81
2021/10/23 15:19:26;;;;;;;;;;;;;;;2.26;95.89;100712.59;5014894;28;19929;-81
2021/10/23 15:21:51;;;;;;;;;;;;;;;2.21;95.41;100711.69;5014774;28;19972;-81
2021/10/23 15:24:18;;;;;;;;;;;;;;;2.14;95.02;100715.16;5014845;28;19921;-82
2021/10/23 15:26:43;;;;;;;;;;;;;;;2.14;94.71;100712.53;5013597;28;19963;-81
2021/10/23 15:29:08;;;;;;;;;;;;;;;1.94;93.78;100708.03;5014700;28;19922;-82
2021/10/23 15:31:34;;;;;;;;;;;;;;;1.87;94.02;100703.63;5014030;28;19925;-80
2021/10/23 15:33:59;;;;;;;;;;;;;;;1.89;93.62;100709.72;5014668;28;19929;-83
2021/10/23 15:36:24;;;;;;;;;;;;;;;1.86;93.42;100717.56;5014013;28;19918;-81
2021/10/23 15:38:51;;;;;;;;;;;;;;;2.12;94.88;100707.28;5014564;28;19928;-82
2021/10/23 15:43:52;;;;;;;;;;;;;;;2.87;100.00;100703.25;5013724;28;19963;-80
2021/10/23 15:46:18;;;;;;;;;;;;;;;2.98;100.00;100703.31;5014072;28;20428;-81
2021/10/23 15:48:43;;;;;;;;;;;;;;;3.01;100.00;100704.19;5014474;28;20061;-81
2021/10/23 15:51:09;;;;;;;;;;;;;;;3.04;100.00;100698.09;5014451;28;19924;-81
2021/10/23 15:53:35;;;;;;;;;;;;;;;3.10;100.00;100703.34;5014697;28;19918;-82
2021/10/23 15:56:00;;;;;;;;;;;;;;;3.15;100.00;100700.75;5013064;28;20048;-81
2021/10/23 15:58:26;;;;;;;;;;;;;;;3.18;100.00;100695.50;5018366;28;20399;-82
2021/10/23 16:00:51;;;;;;;;;;;;;;;3.19;100.00;100692.00;5024268;28;19922;-81
2021/10/23 16:03:16;;;;;;;;;;;;;;;3.23;100.00;100694.63;5023999;28;20312;-80
2021/10/23 16:05:42;;;;;;;;;;;;;;;3.23;100.00;100689.41;5023732;28;20328;-80
2021/10/23 16:08:07;;;;;;;;;;;;;;;3.25;100.00;100692.03;5024524;28;20016;-82
2021/10/23 16:10:33;;;;;;;;;;;;;;;3.27;100.00;100690.25;5024017;28;19913;-80
2021/10/23 16:13:00;;;;;;;;;;;;;;;3.29;100.00;100685.94;5022621;28;19925;-81
2021/10/23 16:15:26;;;;;;;;;;;;;;;3.32;100.00;100688.56;5024051;28;19917;-81
2021/10/23 16:17:51;;;;;;;;;;;;;;;3.33;100.00;100678.94;5023896;28;20008;-81
2021/10/23 16:20:16;;;;;;;;;;;;;;;3.36;100.00;100690.28;5023751;28;19957;-81
2021/10/23 16:22:45;;;;;;;;;;;;;;;3.36;100.00;100690.28;5023427;28;19923;-81
2021/10/23 16:25:10;;;;;;;;;;;;;;;3.37;100.00;100681.56;5005646;28;19971;-80
2021/10/23 16:27:35;;;;;;;;;;;;;;;3.41;100.00;100688.53;5022347;28;19949;-80
2021/10/23 16:30:01;;;;;;;;;;;;;;;3.42;100.00;100689.44;5023635;28;19963;-81
2021/10/23 16:32:26;;;;;;;;;;;;;;;3.45;100.00;100692.91;5023593;28;19961;-80
2021/10/23 16:34:52;;;;;;;;;;;;;;;3.47;100.00;100686.81;5023479;28;19920;-81
2021/10/23 16:37:17;;;;;;;;;;;;;;;3.44;100.00;100687.69;5023176;28;19921;-81
2021/10/23 16:39:42;;;;;;;;;;;;;;;3.48;100.00;100693.78;5023240;28;20381;-81
2021/10/23 16:42:07;;;;;;;;;;;;;;;3.52;100.00;100695.53;5021829;28;19917;-81
2021/10/23 16:44:33;;;;;;;;;;;;;;;3.52;100.00;100690.31;5005629;28;19974;-80
2021/10/23 16:46:58;;;;;;;;;;;;;;;3.52;100.00;100690.31;5022842;28;19940;-81
2021/10/23 16:49:23;;;;;;;;;;;;;;;3.50;100.00;100686.81;5023079;28;19982;-81
2021/10/23 16:51:49;;;;;;;;;;;;;;;3.55;100.00;100695.56;5023229;28;19917;-81
2021/10/23 16:54:15;;;;;;;;;;;;;;;3.55;100.00;100685.06;5023305;28;19927;-80
2021/10/23 16:56:40;;;;;;;;;;;;;;;3.59;100.00;100690.31;5020874;28;20356;-81
2021/10/23 16:59:06;;;;;;;;;;;;;;;3.60;100.00;100694.66;5015489;28;20343;-80
2021/10/23 17:01:31;;;;;;;;;;;;;;;3.60;100.00;100705.16;5013342;28;19918;-81
2021/10/23 17:03:57;;;;;;;;;;;;;;;3.61;100.00;100698.19;5013061;28;20297;-81
2021/10/23 17:06:22;;;;;;;;;;;;;;;3.66;100.00;100696.44;5013100;28;19917;-81
2021/10/23 17:08:47;;;;;;;;;;;;;;;3.66;100.00;100698.19;5011043;28;19917;-80
2021/10/23 17:11:12;;;;;;;;;;;;;;;3.69;100.00;100693.81;5011694;28;19921;-81
2021/10/23 17:13:38;;;;;;;;;;;;;;;3.69;100.00;100703.44;5012891;28;20008;-81
2021/10/23 17:16:03;;;;;;;;;;;;;;;3.70;100.00;100692.03;5012913;28;19921;-80
2021/10/23 17:18:29;;;;;;;;;;;;;;;3.71;100.00;100693.81;5012717;28;20380;-81